sensor_id;sensor_type;location;lat;lon;timestamp;P1;durP1;ratioP1;P2;durP2;ratioP2
44165;SDS011;30476;53.468;9.826;2024-01-11T00:00:34;11.20;;;9.13;;
44165;SDS011;30476;53.468;9.826;2024-01-11T00:03:00;7.70;;;6.90;;
44165;SDS011;30476;53.468;9.826;2024-01-11T00:05:26;12.60;;;6.43;;
44165;SDS011;30476;53.468;9.826;2024-01-11T00:07:52;12.37;;;9.03;;
44165;SDS011;30476;53.468;9.826;2024-01-11T00:10:18;10.73;;;8.10;;
44165;SDS011;30476;53.468;9.826;2024-01-11T00:12:44;7.30;;;6.60;;
44165;SDS011;30476;53.468;9.826;2024-01-11T00:15:10;11.17;;;8.70;;
44165;SDS011;30476;53.468;9.826;2024-01-11T00:17:36;10.07;;;7.27;;
44165;SDS011;30476;53.468;9.826;2024-01-11T00:20:02;12.30;;;7.77;;
44165;SDS011;30476;53.468;9.826;2024-01-11T00:22:28;12.43;;;8.23;;
44165;SDS011;30476;53.468;9.826;2024-01-11T00:24:53;13.57;;;8.00;;
44165;SDS011;30476;53.468;9.826;2024-01-11T00:27:19;13.43;;;7.17;;
44165;SDS011;30476;53.468;9.826;2024-01-11T00:29:45;12.57;;;5.57;;
44165;SDS011;30476;53.468;9.826;2024-01-11T00:32:11;10.23;;;7.70;;
44165;SDS011;30476;53.468;9.826;2024-01-11T00:34:37;10.13;;;6.50;;
44165;SDS011;30476;53.468;9.826;2024-01-11T00:37:04;10.17;;;7.27;;
44165;SDS011;30476;53.468;9.826;2024-01-11T00:39:29;7.37;;;6.67;;
44165;SDS011;30476;53.468;9.826;2024-01-11T00:41:55;10.07;;;6.73;;
44165;SDS011;30476;53.468;9.826;2024-01-11T00:44:21;8.77;;;7.17;;
44165;SDS011;30476;53.468;9.826;2024-01-11T00:46:47;15.83;;;7.77;;
44165;SDS011;30476;53.468;9.826;2024-01-11T00:49:13;5.47;;;4.80;;
44165;SDS011;30476;53.468;9.826;2024-01-11T00:51:38;11.90;;;7.43;;
44165;SDS011;30476;53.468;9.826;2024-01-11T00:54:04;7.60;;;6.90;;
44165;SDS011;30476;53.468;9.826;2024-01-11T00:56:30;11.43;;;7.47;;
44165;SDS011;30476;53.468;9.826;2024-01-11T00:58:56;10.47;;;6.70;;
44165;SDS011;30476;53.468;9.826;2024-01-11T01:01:22;8.80;;;6.63;;
44165;SDS011;30476;53.468;9.826;2024-01-11T01:03:48;14.20;;;6.57;;
44165;SDS011;30476;53.468;9.826;2024-01-11T01:06:14;19.17;;;8.00;;
44165;SDS011;30476;53.468;9.826;2024-01-11T01:08:39;10.50;;;6.80;;
44165;SDS011;30476;53.468;9.826;2024-01-11T01:11:05;9.17;;;6.53;;
44165;SDS011;30476;53.468;9.826;2024-01-11T01:13:31;12.67;;;6.23;;
44165;SDS011;30476;53.468;9.826;2024-01-11T01:15:57;9.43;;;7.43;;
44165;SDS011;30476;53.468;9.826;2024-01-11T01:18:23;10.17;;;6.37;;
44165;SDS011;30476;53.468;9.826;2024-01-11T01:20:49;15.47;;;7.30;;
44165;SDS011;30476;53.468;9.826;2024-01-11T01:23:15;9.50;;;5.77;;
44165;SDS011;30476;53.468;9.826;2024-01-11T01:25:41;10.70;;;7.00;;
44165;SDS011;30476;53.468;9.826;2024-01-11T01:28:07;7.17;;;6.33;;
44165;SDS011;30476;53.468;9.826;2024-01-11T01:30:32;10.17;;;5.30;;
44165;SDS011;30476;53.468;9.826;2024-01-11T01:32:58;11.73;;;7.80;;
44165;SDS011;30476;53.468;9.826;2024-01-11T01:35:24;7.63;;;4.10;;
44165;SDS011;30476;53.468;9.826;2024-01-11T01:37:50;8.97;;;6.00;;
44165;SDS011;30476;53.468;9.826;2024-01-11T01:40:15;11.17;;;6.50;;
44165;SDS011;30476;53.468;9.826;2024-01-11T01:42:42;13.03;;;7.40;;
44165;SDS011;30476;53.468;9.826;2024-01-11T01:45:09;9.63;;;6.07;;
44165;SDS011;30476;53.468;9.826;2024-01-11T01:47:36;16.90;;;7.10;;
44165;SDS011;30476;53.468;9.826;2024-01-11T01:50:03;8.37;;;5.87;;
44165;SDS011;30476;53.468;9.826;2024-01-11T01:52:30;7.90;;;5.30;;
44165;SDS011;30476;53.468;9.826;2024-01-11T01:54:58;23.87;;;7.23;;
44165;SDS011;30476;53.468;9.826;2024-01-11T01:57:24;7.10;;;6.27;;
44165;SDS011;30476;53.468;9.826;2024-01-11T01:59:51;12.00;;;6.60;;
44165;SDS011;30476;53.468;9.826;2024-01-11T02:02:19;10.63;;;5.20;;
44165;SDS011;30476;53.468;9.826;2024-01-11T02:04:45;6.63;;;5.83;;
44165;SDS011;30476;53.468;9.826;2024-01-11T02:07:11;10.17;;;6.90;;
44165;SDS011;30476;53.468;9.826;2024-01-11T02:09:38;19.23;;;6.07;;
44165;SDS011;30476;53.468;9.826;2024-01-11T02:12:05;11.17;;;5.97;;
44165;SDS011;30476;53.468;9.826;2024-01-11T02:14:31;8.53;;;6.37;;
44165;SDS011;30476;53.468;9.826;2024-01-11T02:16:57;11.93;;;6.10;;
44165;SDS011;30476;53.468;9.826;2024-01-11T02:22:49;10.47;;;7.00;;
44165;SDS011;30476;53.468;9.826;2024-01-11T02:25:18;11.50;;;6.20;;
44165;SDS011;30476;53.468;9.826;2024-01-11T02:27:47;12.37;;;6.10;;
44165;SDS011;30476;53.468;9.826;2024-01-11T02:30:14;9.10;;;6.10;;
44165;SDS011;30476;53.468;9.826;2024-01-11T02:32:40;5.27;;;4.57;;
44165;SDS011;30476;53.468;9.826;2024-01-11T02:35:14;6.07;;;5.50;;
44165;SDS011;30476;53.468;9.826;2024-01-11T02:37:41;8.60;;;6.23;;
44165;SDS011;30476;53.468;9.826;2024-01-11T02:40:08;13.67;;;7.00;;
44165;SDS011;30476;53.468;9.826;2024-01-11T02:42:34;8.50;;;6.20;;
44165;SDS011;30476;53.468;9.826;2024-01-11T02:45:02;6.00;;;3.83;;
44165;SDS011;30476;53.468;9.826;2024-01-11T02:47:28;11.17;;;5.00;;
44165;SDS011;30476;53.468;9.826;2024-01-11T02:49:54;7.13;;;5.47;;
44165;SDS011;30476;53.468;9.826;2024-01-11T02:52:20;9.03;;;5.17;;
44165;SDS011;30476;53.468;9.826;2024-01-11T02:54:46;8.13;;;4.30;;
44165;SDS011;30476;53.468;9.826;2024-01-11T02:57:11;8.90;;;5.70;;
44165;SDS011;30476;53.468;9.826;2024-01-11T02:59:37;12.93;;;7.57;;
44165;SDS011;30476;53.468;9.826;2024-01-11T03:02:02;14.10;;;6.33;;
44165;SDS011;30476;53.468;9.826;2024-01-11T03:04:29;14.13;;;6.23;;
44165;SDS011;30476;53.468;9.826;2024-01-11T03:06:55;10.73;;;5.77;;
44165;SDS011;30476;53.468;9.826;2024-01-11T03:09:20;10.23;;;6.83;;
44165;SDS011;30476;53.468;9.826;2024-01-11T03:11:46;13.17;;;8.00;;
44165;SDS011;30476;53.468;9.826;2024-01-11T03:14:12;12.17;;;5.67;;
44165;SDS011;30476;53.468;9.826;2024-01-11T03:16:38;10.60;;;6.30;;
44165;SDS011;30476;53.468;9.826;2024-01-11T03:19:05;17.37;;;8.33;;
44165;SDS011;30476;53.468;9.826;2024-01-11T03:21:31;14.03;;;7.73;;
44165;SDS011;30476;53.468;9.826;2024-01-11T03:23:56;12.50;;;6.47;;
44165;SDS011;30476;53.468;9.826;2024-01-11T03:26:22;8.37;;;6.80;;
44165;SDS011;30476;53.468;9.826;2024-01-11T03:28:47;8.60;;;6.33;;
44165;SDS011;30476;53.468;9.826;2024-01-11T03:31:14;9.93;;;7.43;;
44165;SDS011;30476;53.468;9.826;2024-01-11T03:33:40;14.30;;;5.27;;
44165;SDS011;30476;53.468;9.826;2024-01-11T03:36:10;9.87;;;5.87;;
44165;SDS011;30476;53.468;9.826;2024-01-11T03:38:36;19.03;;;7.10;;
44165;SDS011;30476;53.468;9.826;2024-01-11T03:41:07;17.60;;;8.10;;
44165;SDS011;30476;53.468;9.826;2024-01-11T03:43:34;16.10;;;6.63;;
44165;SDS011;30476;53.468;9.826;2024-01-11T03:45:59;13.33;;;7.23;;
44165;SDS011;30476;53.468;9.826;2024-01-11T03:48:25;7.90;;;6.90;;
44165;SDS011;30476;53.468;9.826;2024-01-11T03:50:51;13.43;;;7.43;;
44165;SDS011;30476;53.468;9.826;2024-01-11T03:53:17;13.33;;;7.00;;
44165;SDS011;30476;53.468;9.826;2024-01-11T03:55:43;17.43;;;7.63;;
44165;SDS011;30476;53.468;9.826;2024-01-11T03:58:08;7.83;;;6.27;;
44165;SDS011;30476;53.468;9.826;2024-01-11T04:00:34;11.53;;;6.90;;
44165;SDS011;30476;53.468;9.826;2024-01-11T04:03:00;16.70;;;6.20;;
44165;SDS011;30476;53.468;9.826;2024-01-11T04:05:27;20.77;;;6.63;;
44165;SDS011;30476;53.468;9.826;2024-01-11T04:07:53;11.10;;;5.90;;
44165;SDS011;30476;53.468;9.826;2024-01-11T04:10:19;13.40;;;6.30;;
44165;SDS011;30476;53.468;9.826;2024-01-11T04:12:45;11.63;;;5.97;;
44165;SDS011;30476;53.468;9.826;2024-01-11T04:15:14;12.23;;;6.00;;
44165;SDS011;30476;53.468;9.826;2024-01-11T04:17:40;16.23;;;7.27;;
44165;SDS011;30476;53.468;9.826;2024-01-11T04:20:06;15.23;;;7.10;;
44165;SDS011;30476;53.468;9.826;2024-01-11T04:22:33;10.87;;;7.17;;
44165;SDS011;30476;53.468;9.826;2024-01-11T04:25:00;11.57;;;7.33;;
44165;SDS011;30476;53.468;9.826;2024-01-11T04:27:26;16.33;;;8.27;;
44165;SDS011;30476;53.468;9.826;2024-01-11T04:29:51;14.20;;;6.90;;
44165;SDS011;30476;53.468;9.826;2024-01-11T04:32:17;13.47;;;6.83;;
44165;SDS011;30476;53.468;9.826;2024-01-11T04:34:43;9.23;;;6.17;;
44165;SDS011;30476;53.468;9.826;2024-01-11T04:37:09;17.03;;;8.27;;
44165;SDS011;30476;53.468;9.826;2024-01-11T04:39:35;13.30;;;7.27;;
44165;SDS011;30476;53.468;9.826;2024-01-11T04:42:01;14.13;;;8.40;;
44165;SDS011;30476;53.468;9.826;2024-01-11T04:44:27;11.17;;;8.27;;
44165;SDS011;30476;53.468;9.826;2024-01-11T04:46:53;14.07;;;7.73;;
44165;SDS011;30476;53.468;9.826;2024-01-11T04:49:18;15.27;;;8.77;;
44165;SDS011;30476;53.468;9.826;2024-01-11T04:51:44;15.67;;;8.13;;
44165;SDS011;30476;53.468;9.826;2024-01-11T04:54:10;16.37;;;9.37;;
44165;SDS011;30476;53.468;9.826;2024-01-11T04:56:36;10.03;;;8.57;;
44165;SDS011;30476;53.468;9.826;2024-01-11T04:59:02;13.60;;;8.93;;
44165;SDS011;30476;53.468;9.826;2024-01-11T05:01:28;14.27;;;10.50;;
44165;SDS011;30476;53.468;9.826;2024-01-11T05:03:53;12.70;;;7.77;;
44165;SDS011;30476;53.468;9.826;2024-01-11T05:06:19;9.90;;;7.40;;
44165;SDS011;30476;53.468;9.826;2024-01-11T05:08:47;12.87;;;7.97;;
44165;SDS011;30476;53.468;9.826;2024-01-11T05:11:32;12.90;;;8.67;;
44165;SDS011;30476;53.468;9.826;2024-01-11T05:13:58;18.13;;;7.23;;
44165;SDS011;30476;53.468;9.826;2024-01-11T05:16:24;20.00;;;8.37;;
44165;SDS011;30476;53.468;9.826;2024-01-11T05:18:54;10.90;;;7.30;;
44165;SDS011;30476;53.468;9.826;2024-01-11T05:21:21;10.80;;;7.37;;
44165;SDS011;30476;53.468;9.826;2024-01-11T05:23:48;23.00;;;7.37;;
44165;SDS011;30476;53.468;9.826;2024-01-11T05:26:14;17.90;;;8.23;;
44165;SDS011;30476;53.468;9.826;2024-01-11T05:28:41;10.77;;;6.90;;
44165;SDS011;30476;53.468;9.826;2024-01-11T05:31:08;15.37;;;8.13;;
44165;SDS011;30476;53.468;9.826;2024-01-11T05:33:36;14.47;;;7.63;;
44165;SDS011;30476;53.468;9.826;2024-01-11T05:36:02;13.97;;;7.43;;
44165;SDS011;30476;53.468;9.826;2024-01-11T05:38:28;12.67;;;6.50;;
44165;SDS011;30476;53.468;9.826;2024-01-11T05:40:54;11.43;;;7.67;;
44165;SDS011;30476;53.468;9.826;2024-01-11T05:43:20;11.87;;;6.80;;
44165;SDS011;30476;53.468;9.826;2024-01-11T05:45:46;11.50;;;6.57;;
44165;SDS011;30476;53.468;9.826;2024-01-11T05:48:12;10.23;;;7.73;;
44165;SDS011;30476;53.468;9.826;2024-01-11T05:50:38;10.73;;;6.90;;
44165;SDS011;30476;53.468;9.826;2024-01-11T05:53:04;8.70;;;5.43;;
44165;SDS011;30476;53.468;9.826;2024-01-11T05:55:30;8.00;;;5.67;;
44165;SDS011;30476;53.468;9.826;2024-01-11T05:57:56;10.37;;;5.03;;
44165;SDS011;30476;53.468;9.826;2024-01-11T06:00:21;9.70;;;6.47;;
44165;SDS011;30476;53.468;9.826;2024-01-11T06:02:47;7.23;;;5.33;;
44165;SDS011;30476;53.468;9.826;2024-01-11T06:05:13;8.60;;;6.83;;
44165;SDS011;30476;53.468;9.826;2024-01-11T06:07:40;15.13;;;5.13;;
44165;SDS011;30476;53.468;9.826;2024-01-11T06:10:07;10.87;;;5.73;;
44165;SDS011;30476;53.468;9.826;2024-01-11T06:12:34;12.03;;;6.80;;
44165;SDS011;30476;53.468;9.826;2024-01-11T06:15:00;6.70;;;5.03;;
44165;SDS011;30476;53.468;9.826;2024-01-11T06:17:27;9.33;;;5.30;;
44165;SDS011;30476;53.468;9.826;2024-01-11T06:19:53;6.97;;;4.40;;
44165;SDS011;30476;53.468;9.826;2024-01-11T06:22:20;6.50;;;5.37;;
44165;SDS011;30476;53.468;9.826;2024-01-11T06:24:45;9.27;;;5.63;;
44165;SDS011;30476;53.468;9.826;2024-01-11T06:27:11;10.40;;;6.20;;
44165;SDS011;30476;53.468;9.826;2024-01-11T06:29:37;13.20;;;5.70;;
44165;SDS011;30476;53.468;9.826;2024-01-11T06:32:03;9.93;;;4.60;;
44165;SDS011;30476;53.468;9.826;2024-01-11T06:34:29;6.90;;;5.07;;
44165;SDS011;30476;53.468;9.826;2024-01-11T06:36:55;9.10;;;4.53;;
44165;SDS011;30476;53.468;9.826;2024-01-11T06:39:21;8.07;;;4.30;;
44165;SDS011;30476;53.468;9.826;2024-01-11T06:41:47;8.60;;;4.80;;
44165;SDS011;30476;53.468;9.826;2024-01-11T06:44:13;8.00;;;4.80;;
44165;SDS011;30476;53.468;9.826;2024-01-11T06:46:39;9.57;;;5.30;;
44165;SDS011;30476;53.468;9.826;2024-01-11T06:49:07;6.47;;;3.50;;
44165;SDS011;30476;53.468;9.826;2024-01-11T06:51:33;10.20;;;4.00;;
44165;SDS011;30476;53.468;9.826;2024-01-11T06:53:59;5.70;;;4.20;;
44165;SDS011;30476;53.468;9.826;2024-01-11T06:56:26;14.33;;;6.07;;
44165;SDS011;30476;53.468;9.826;2024-01-11T06:58:52;7.93;;;5.63;;
44165;SDS011;30476;53.468;9.826;2024-01-11T07:01:20;6.53;;;4.50;;
44165;SDS011;30476;53.468;9.826;2024-01-11T07:03:46;11.70;;;6.27;;
44165;SDS011;30476;53.468;9.826;2024-01-11T07:06:12;10.23;;;5.00;;
44165;SDS011;30476;53.468;9.826;2024-01-11T07:08:38;7.57;;;5.60;;
44165;SDS011;30476;53.468;9.826;2024-01-11T07:11:04;6.83;;;5.10;;
44165;SDS011;30476;53.468;9.826;2024-01-11T07:13:30;10.00;;;4.77;;
44165;SDS011;30476;53.468;9.826;2024-01-11T07:15:59;9.83;;;3.63;;
44165;SDS011;30476;53.468;9.826;2024-01-11T07:18:25;4.20;;;2.90;;
44165;SDS011;30476;53.468;9.826;2024-01-11T07:20:52;7.67;;;4.20;;
44165;SDS011;30476;53.468;9.826;2024-01-11T07:23:18;8.03;;;4.23;;
44165;SDS011;30476;53.468;9.826;2024-01-11T07:25:44;6.93;;;4.17;;
44165;SDS011;30476;53.468;9.826;2024-01-11T07:31:32;1.80;;;1.67;;
44165;SDS011;30476;53.468;9.826;2024-01-11T07:34:06;2.90;;;2.60;;
44165;SDS011;30476;53.468;9.826;2024-01-11T07:36:32;3.60;;;2.10;;
44165;SDS011;30476;53.468;9.826;2024-01-11T07:38:57;3.57;;;2.10;;
44165;SDS011;30476;53.468;9.826;2024-01-11T07:44:45;4.57;;;2.20;;
44165;SDS011;30476;53.468;9.826;2024-01-11T07:47:11;2.20;;;2.03;;
44165;SDS011;30476;53.468;9.826;2024-01-11T07:49:37;5.70;;;1.67;;
44165;SDS011;30476;53.468;9.826;2024-01-11T07:52:03;2.33;;;1.50;;
44165;SDS011;30476;53.468;9.826;2024-01-11T07:54:30;4.40;;;1.47;;
44165;SDS011;30476;53.468;9.826;2024-01-11T07:56:56;5.40;;;2.50;;
44165;SDS011;30476;53.468;9.826;2024-01-11T07:59:22;5.10;;;2.90;;
44165;SDS011;30476;53.468;9.826;2024-01-11T08:01:48;3.57;;;1.83;;
44165;SDS011;30476;53.468;9.826;2024-01-11T08:04:14;2.07;;;1.93;;
44165;SDS011;30476;53.468;9.826;2024-01-11T08:06:39;3.67;;;1.70;;
44165;SDS011;30476;53.468;9.826;2024-01-11T08:09:05;4.07;;;1.30;;
44165;SDS011;30476;53.468;9.826;2024-01-11T08:11:31;3.00;;;2.07;;
44165;SDS011;30476;53.468;9.826;2024-01-11T08:13:58;4.60;;;1.60;;
44165;SDS011;30476;53.468;9.826;2024-01-11T08:16:24;2.80;;;1.93;;
44165;SDS011;30476;53.468;9.826;2024-01-11T08:18:49;1.70;;;1.30;;
44165;SDS011;30476;53.468;9.826;2024-01-11T08:21:15;2.40;;;1.30;;
44165;SDS011;30476;53.468;9.826;2024-01-11T08:23:41;2.60;;;1.57;;
44165;SDS011;30476;53.468;9.826;2024-01-11T08:26:12;3.90;;;1.63;;
44165;SDS011;30476;53.468;9.826;2024-01-11T08:28:39;3.60;;;1.97;;
44165;SDS011;30476;53.468;9.826;2024-01-11T08:31:05;5.70;;;2.00;;
44165;SDS011;30476;53.468;9.826;2024-01-11T08:33:31;2.40;;;2.20;;
44165;SDS011;30476;53.468;9.826;2024-01-11T08:35:57;3.10;;;2.00;;
44165;SDS011;30476;53.468;9.826;2024-01-11T08:38:23;2.60;;;1.87;;
44165;SDS011;30476;53.468;9.826;2024-01-11T08:40:50;7.77;;;1.97;;
44165;SDS011;30476;53.468;9.826;2024-01-11T08:43:16;4.33;;;1.97;;
44165;SDS011;30476;53.468;9.826;2024-01-11T08:45:42;4.63;;;2.70;;
44165;SDS011;30476;53.468;9.826;2024-01-11T08:48:12;4.63;;;2.70;;
44165;SDS011;30476;53.468;9.826;2024-01-11T08:50:39;3.37;;;2.50;;
44165;SDS011;30476;53.468;9.826;2024-01-11T08:53:04;5.27;;;4.77;;
44165;SDS011;30476;53.468;9.826;2024-01-11T08:55:30;10.67;;;5.67;;
44165;SDS011;30476;53.468;9.826;2024-01-11T08:57:56;7.77;;;4.40;;
44165;SDS011;30476;53.468;9.826;2024-01-11T09:00:22;19.90;;;4.07;;
44165;SDS011;30476;53.468;9.826;2024-01-11T09:02:47;5.23;;;3.73;;
44165;SDS011;30476;53.468;9.826;2024-01-11T09:05:14;5.90;;;4.80;;
44165;SDS011;30476;53.468;9.826;2024-01-11T09:07:40;5.33;;;3.83;;
44165;SDS011;30476;53.468;9.826;2024-01-11T09:10:06;11.33;;;5.83;;
44165;SDS011;30476;53.468;9.826;2024-01-11T09:12:36;8.30;;;4.33;;
44165;SDS011;30476;53.468;9.826;2024-01-11T09:15:02;10.23;;;4.57;;
44165;SDS011;30476;53.468;9.826;2024-01-11T09:17:28;8.73;;;4.77;;
44165;SDS011;30476;53.468;9.826;2024-01-11T09:19:54;8.00;;;5.57;;
44165;SDS011;30476;53.468;9.826;2024-01-11T09:22:20;9.37;;;5.97;;
44165;SDS011;30476;53.468;9.826;2024-01-11T09:24:46;11.87;;;5.90;;
44165;SDS011;30476;53.468;9.826;2024-01-11T09:27:12;20.63;;;8.30;;
44165;SDS011;30476;53.468;9.826;2024-01-11T09:29:47;12.87;;;5.67;;
44165;SDS011;30476;53.468;9.826;2024-01-11T09:32:12;9.03;;;6.47;;
44165;SDS011;30476;53.468;9.826;2024-01-11T09:34:39;9.90;;;7.13;;
44165;SDS011;30476;53.468;9.826;2024-01-11T09:37:04;11.57;;;6.17;;
44165;SDS011;30476;53.468;9.826;2024-01-11T09:39:30;15.60;;;7.30;;
44165;SDS011;30476;53.468;9.826;2024-01-11T09:41:58;14.17;;;7.00;;
44165;SDS011;30476;53.468;9.826;2024-01-11T09:44:36;8.77;;;5.67;;
44165;SDS011;30476;53.468;9.826;2024-01-11T09:47:08;18.03;;;7.47;;
44165;SDS011;30476;53.468;9.826;2024-01-11T09:49:36;14.37;;;7.20;;
44165;SDS011;30476;53.468;9.826;2024-01-11T09:52:04;11.80;;;6.40;;
44165;SDS011;30476;53.468;9.826;2024-01-11T09:54:30;12.87;;;7.03;;
44165;SDS011;30476;53.468;9.826;2024-01-11T09:56:57;12.53;;;7.27;;
44165;SDS011;30476;53.468;9.826;2024-01-11T09:59:24;15.80;;;6.70;;
44165;SDS011;30476;53.468;9.826;2024-01-11T10:01:51;8.10;;;6.37;;
44165;SDS011;30476;53.468;9.826;2024-01-11T10:04:18;7.47;;;4.87;;
44165;SDS011;30476;53.468;9.826;2024-01-11T10:06:44;6.93;;;5.80;;
44165;SDS011;30476;53.468;9.826;2024-01-11T10:09:11;10.10;;;6.60;;
44165;SDS011;30476;53.468;9.826;2024-01-11T10:11:38;33.50;;;7.57;;
44165;SDS011;30476;53.468;9.826;2024-01-11T10:14:03;15.90;;;6.23;;
44165;SDS011;30476;53.468;9.826;2024-01-11T10:16:30;20.70;;;8.33;;
44165;SDS011;30476;53.468;9.826;2024-01-11T10:18:56;10.83;;;5.67;;
44165;SDS011;30476;53.468;9.826;2024-01-11T10:21:23;8.80;;;7.10;;
44165;SDS011;30476;53.468;9.826;2024-01-11T10:23:49;15.53;;;7.30;;
44165;SDS011;30476;53.468;9.826;2024-01-11T10:26:16;12.80;;;7.93;;
44165;SDS011;30476;53.468;9.826;2024-01-11T10:28:44;12.67;;;5.60;;
44165;SDS011;30476;53.468;9.826;2024-01-11T10:31:10;13.30;;;6.33;;
44165;SDS011;30476;53.468;9.826;2024-01-11T10:33:36;10.27;;;6.23;;
44165;SDS011;30476;53.468;9.826;2024-01-11T10:36:03;10.43;;;5.80;;
44165;SDS011;30476;53.468;9.826;2024-01-11T10:38:33;14.23;;;6.43;;
44165;SDS011;30476;53.468;9.826;2024-01-11T10:41:02;12.37;;;6.73;;
44165;SDS011;30476;53.468;9.826;2024-01-11T10:43:31;12.00;;;7.40;;
44165;SDS011;30476;53.468;9.826;2024-01-11T10:45:59;10.00;;;4.90;;
44165;SDS011;30476;53.468;9.826;2024-01-11T10:48:30;14.00;;;6.40;;
44165;SDS011;30476;53.468;9.826;2024-01-11T10:51:00;13.37;;;7.13;;
44165;SDS011;30476;53.468;9.826;2024-01-11T10:53:43;15.63;;;7.33;;
44165;SDS011;30476;53.468;9.826;2024-01-11T10:56:11;10.27;;;6.77;;
44165;SDS011;30476;53.468;9.826;2024-01-11T10:58:37;18.33;;;8.00;;
44165;SDS011;30476;53.468;9.826;2024-01-11T11:01:08;20.13;;;9.13;;
44165;SDS011;30476;53.468;9.826;2024-01-11T11:03:36;7.93;;;4.77;;
44165;SDS011;30476;53.468;9.826;2024-01-11T11:06:03;12.50;;;7.33;;
44165;SDS011;30476;53.468;9.826;2024-01-11T11:08:31;16.33;;;7.17;;
44165;SDS011;30476;53.468;9.826;2024-01-11T11:10:57;12.43;;;7.67;;
44165;SDS011;30476;53.468;9.826;2024-01-11T11:13:25;13.20;;;8.03;;
44165;SDS011;30476;53.468;9.826;2024-01-11T11:15:52;13.43;;;7.37;;
44165;SDS011;30476;53.468;9.826;2024-01-11T11:18:19;8.27;;;6.40;;
44165;SDS011;30476;53.468;9.826;2024-01-11T11:20:46;12.00;;;6.77;;
44165;SDS011;30476;53.468;9.826;2024-01-11T11:23:14;18.87;;;7.70;;
44165;SDS011;30476;53.468;9.826;2024-01-11T11:25:42;8.13;;;6.60;;
44165;SDS011;30476;53.468;9.826;2024-01-11T11:28:11;17.67;;;6.87;;
44165;SDS011;30476;53.468;9.826;2024-01-11T11:30:39;8.93;;;6.17;;
44165;SDS011;30476;53.468;9.826;2024-01-11T11:33:17;18.80;;;8.17;;
44165;SDS011;30476;53.468;9.826;2024-01-11T11:35:48;17.50;;;7.97;;
44165;SDS011;30476;53.468;9.826;2024-01-11T11:38:22;19.40;;;8.20;;
44165;SDS011;30476;53.468;9.826;2024-01-11T11:40:48;9.70;;;7.40;;
44165;SDS011;30476;53.468;9.826;2024-01-11T11:43:17;17.43;;;8.53;;
44165;SDS011;30476;53.468;9.826;2024-01-11T11:45:43;15.13;;;8.70;;
44165;SDS011;30476;53.468;9.826;2024-01-11T11:53:35;13.50;;;7.70;;
44165;SDS011;30476;53.468;9.826;2024-01-11T11:56:02;10.23;;;6.27;;
44165;SDS011;30476;53.468;9.826;2024-01-11T11:58:28;15.10;;;7.47;;
44165;SDS011;30476;53.468;9.826;2024-01-11T12:00:55;21.40;;;9.13;;
44165;SDS011;30476;53.468;9.826;2024-01-11T12:03:24;17.03;;;8.27;;
44165;SDS011;30476;53.468;9.826;2024-01-11T12:05:54;15.70;;;7.17;;
44165;SDS011;30476;53.468;9.826;2024-01-11T12:08:21;21.03;;;8.17;;
44165;SDS011;30476;53.468;9.826;2024-01-11T12:10:47;21.60;;;7.50;;
44165;SDS011;30476;53.468;9.826;2024-01-11T12:13:13;13.80;;;7.57;;
44165;SDS011;30476;53.468;9.826;2024-01-11T12:15:38;15.33;;;8.27;;
44165;SDS011;30476;53.468;9.826;2024-01-11T12:18:05;18.57;;;7.97;;
44165;SDS011;30476;53.468;9.826;2024-01-11T12:20:32;12.47;;;6.13;;
44165;SDS011;30476;53.468;9.826;2024-01-11T12:22:58;7.87;;;6.30;;
44165;SDS011;30476;53.468;9.826;2024-01-11T12:25:24;13.73;;;7.70;;
44165;SDS011;30476;53.468;9.826;2024-01-11T12:27:50;13.10;;;7.80;;
44165;SDS011;30476;53.468;9.826;2024-01-11T12:30:17;16.70;;;7.50;;
44165;SDS011;30476;53.468;9.826;2024-01-11T12:32:43;15.33;;;7.50;;
44165;SDS011;30476;53.468;9.826;2024-01-11T12:35:09;13.17;;;6.70;;
44165;SDS011;30476;53.468;9.826;2024-01-11T12:37:36;8.83;;;5.73;;
44165;SDS011;30476;53.468;9.826;2024-01-11T12:40:01;20.07;;;8.37;;
44165;SDS011;30476;53.468;9.826;2024-01-11T12:42:28;14.00;;;6.53;;
44165;SDS011;30476;53.468;9.826;2024-01-11T12:44:55;8.90;;;5.73;;
44165;SDS011;30476;53.468;9.826;2024-01-11T12:47:21;16.90;;;7.40;;
44165;SDS011;30476;53.468;9.826;2024-01-11T12:49:46;10.87;;;6.70;;
44165;SDS011;30476;53.468;9.826;2024-01-11T12:52:18;10.60;;;7.17;;
44165;SDS011;30476;53.468;9.826;2024-01-11T12:54:44;10.13;;;6.60;;
44165;SDS011;30476;53.468;9.826;2024-01-11T12:57:20;12.43;;;6.53;;
44165;SDS011;30476;53.468;9.826;2024-01-11T12:59:48;13.10;;;7.30;;
44165;SDS011;30476;53.468;9.826;2024-01-11T13:02:15;16.40;;;7.27;;
44165;SDS011;30476;53.468;9.826;2024-01-11T13:04:44;11.13;;;6.03;;
44165;SDS011;30476;53.468;9.826;2024-01-11T13:07:11;21.00;;;7.93;;
44165;SDS011;30476;53.468;9.826;2024-01-11T13:09:38;18.23;;;7.57;;
44165;SDS011;30476;53.468;9.826;2024-01-11T13:12:04;8.47;;;6.30;;
44165;SDS011;30476;53.468;9.826;2024-01-11T13:14:30;13.87;;;7.40;;
44165;SDS011;30476;53.468;9.826;2024-01-11T13:16:56;20.50;;;8.33;;
44165;SDS011;30476;53.468;9.826;2024-01-11T13:19:22;14.07;;;7.13;;
44165;SDS011;30476;53.468;9.826;2024-01-11T13:21:48;15.43;;;6.57;;
44165;SDS011;30476;53.468;9.826;2024-01-11T13:24:14;19.00;;;7.50;;
44165;SDS011;30476;53.468;9.826;2024-01-11T13:26:40;15.40;;;7.33;;
44165;SDS011;30476;53.468;9.826;2024-01-11T13:29:06;15.03;;;7.10;;
44165;SDS011;30476;53.468;9.826;2024-01-11T13:31:32;14.50;;;6.97;;
44165;SDS011;30476;53.468;9.826;2024-01-11T13:33:57;29.43;;;6.93;;
44165;SDS011;30476;53.468;9.826;2024-01-11T13:36:23;18.97;;;8.37;;
44165;SDS011;30476;53.468;9.826;2024-01-11T13:38:49;8.63;;;6.70;;
44165;SDS011;30476;53.468;9.826;2024-01-11T13:41:15;21.33;;;10.63;;
44165;SDS011;30476;53.468;9.826;2024-01-11T13:43:45;11.33;;;7.30;;
44165;SDS011;30476;53.468;9.826;2024-01-11T13:46:11;14.47;;;7.13;;
44165;SDS011;30476;53.468;9.826;2024-01-11T13:48:40;15.20;;;6.90;;
44165;SDS011;30476;53.468;9.826;2024-01-11T13:51:05;16.33;;;9.20;;
44165;SDS011;30476;53.468;9.826;2024-01-11T13:53:32;11.97;;;7.33;;
44165;SDS011;30476;53.468;9.826;2024-01-11T13:55:58;9.30;;;5.17;;
44165;SDS011;30476;53.468;9.826;2024-01-11T13:58:24;14.77;;;8.30;;
44165;SDS011;30476;53.468;9.826;2024-01-11T14:00:50;15.93;;;7.17;;
44165;SDS011;30476;53.468;9.826;2024-01-11T14:03:16;12.60;;;7.13;;
44165;SDS011;30476;53.468;9.826;2024-01-11T14:05:41;13.13;;;7.00;;
44165;SDS011;30476;53.468;9.826;2024-01-11T14:08:07;12.73;;;7.70;;
44165;SDS011;30476;53.468;9.826;2024-01-11T14:10:34;13.30;;;7.20;;
44165;SDS011;30476;53.468;9.826;2024-01-11T14:13:00;11.93;;;8.43;;
44165;SDS011;30476;53.468;9.826;2024-01-11T14:15:26;12.40;;;6.80;;
44165;SDS011;30476;53.468;9.826;2024-01-11T14:17:52;14.70;;;6.10;;
44165;SDS011;30476;53.468;9.826;2024-01-11T14:20:18;12.13;;;6.00;;
44165;SDS011;30476;53.468;9.826;2024-01-11T14:22:44;10.23;;;6.47;;
44165;SDS011;30476;53.468;9.826;2024-01-11T14:25:20;14.70;;;7.70;;
44165;SDS011;30476;53.468;9.826;2024-01-11T14:27:49;12.87;;;7.03;;
44165;SDS011;30476;53.468;9.826;2024-01-11T14:30:15;12.40;;;7.33;;
44165;SDS011;30476;53.468;9.826;2024-01-11T14:32:41;17.33;;;7.50;;
44165;SDS011;30476;53.468;9.826;2024-01-11T14:35:08;21.03;;;8.87;;
44165;SDS011;30476;53.468;9.826;2024-01-11T14:37:35;15.57;;;8.07;;
44165;SDS011;30476;53.468;9.826;2024-01-11T14:40:04;7.37;;;5.83;;
44165;SDS011;30476;53.468;9.826;2024-01-11T14:42:30;20.97;;;6.70;;
44165;SDS011;30476;53.468;9.826;2024-01-11T14:44:56;15.40;;;7.43;;
44165;SDS011;30476;53.468;9.826;2024-01-11T14:47:22;12.80;;;7.60;;
44165;SDS011;30476;53.468;9.826;2024-01-11T14:49:48;21.87;;;7.23;;